SVMG/PMV METAR and TAF weather

Enter ICAO airport designator
Station Type Date Time Source
SVMG METAR 2021/08/01 17:03 UTC NOAA

SVMG 011703Z AUTO 11013KT NCD 30/25 Q1017


Station Type Date Time Source
SVMG Decoded METAR 2021/08/01 17:03 UTC NOAA

Margarita / Del Carib, Venezuela (SVMG) 10-55N 063-59W
Aug 01, 2021 - 01:03 PM EDT / 2021.08.01 1703 UTC
Wind: from the ESE (110 degrees) at 15 MPH (13 KT):0
Temperature: 86 F (30 C)
Heat index: 96.8 F (36.0 C):1
Dew Point: 77 F (25 C)
Relative Humidity: 74%
Pressure (altimeter): 30.03 in. Hg (1017 hPa)
ob: SVMG 011703Z AUTO 11013KT NCD 30/25 Q1017
cycle: 17

Station Type Date Time Source
SVMG TAF 2021/08/01 18:05 UTC NOAA

TAF SVMG 011600Z 0118/0218 09004KT 9999 SCT016 TX32/0118Z TN24/0208Z
BECMG 0118/0122 09004KT 9999 BKN016

Example: see airport list